CCA8557 ZSPD-ZUUU
Flight info
| Callsign | CCA8557 |
|---|---|
| Flight time | N/A |
| Altitude | 34100 |
| Route | ZSPD POMOK G330 UNTAN G345 OLRIS R343 MADUK W51 LEGIV W164 ADGOL W50 XSH W80 URGEG W231 EKOKA ZUUU |
| Aircraft | A359/H-SDE2E3FGHIJ4J5M1RWXYZ/LB2D1 |
Departure
| Time | 2026-05-03 23:28 |
|---|---|
| Airport | Shanghai Pudong International Airport (ZSPD) |
Arrival
| Time | N/A |
|---|---|
| Airport | Chengdu Shuangliu International Airport (ZUUU) |
| Time | Latitude | Longitude | Altitude | Speed | Heading |
|---|---|---|---|---|---|
| 2026-05-03 22:55 | 31.15221 | 121.80789 | 28 ft | 0 kts | 252° |
| 2026-05-03 22:56 | 31.15221 | 121.80788 | 28 ft | 0 kts | 252° |
| 2026-05-03 22:56 | 31.15220 | 121.80785 | 29 ft | 0 kts | 252° |
| 2026-05-03 23:10 | 31.15223 | 121.80794 | 29 ft | 4 kts | 252° |
| 2026-05-03 23:10 | 31.15232 | 121.80824 | 19 ft | 4 kts | 252° |
| 2026-05-03 23:11 | 31.15241 | 121.80853 | 4 ft | 4 kts | 237° |
| 2026-05-03 23:11 | 31.15258 | 121.80871 | 31 ft | 4 kts | 181° |
| 2026-05-03 23:11 | 31.15276 | 121.80867 | 27 ft | 4 kts | 162° |
| 2026-05-03 23:11 | 31.15299 | 121.80858 | 28 ft | 1 kts | 162° |
| 2026-05-03 23:15 | 31.15278 | 121.80866 | 28 ft | 7 kts | 162° |
| 2026-05-03 23:15 | 31.15203 | 121.80894 | 29 ft | 15 kts | 162° |
| 2026-05-03 23:15 | 31.15082 | 121.80940 | 29 ft | 21 kts | 162° |
| 2026-05-03 23:16 | 31.14943 | 121.80993 | 29 ft | 22 kts | 162° |
| 2026-05-03 23:16 | 31.14815 | 121.81046 | 29 ft | 12 kts | 144° |
| 2026-05-03 23:16 | 31.14808 | 121.81125 | 29 ft | 11 kts | 76° |
| 2026-05-03 23:16 | 31.14827 | 121.81194 | 29 ft | 9 kts | 70° |
| 2026-05-03 23:17 | 31.14804 | 121.81249 | 29 ft | 9 kts | 151° |
| 2026-05-03 23:17 | 31.14740 | 121.81276 | 29 ft | 13 kts | 162° |
| 2026-05-03 23:17 | 31.14647 | 121.81310 | 29 ft | 15 kts | 162° |
| 2026-05-03 23:17 | 31.14547 | 121.81349 | 29 ft | 14 kts | 161° |
| 2026-05-03 23:18 | 31.14486 | 121.81320 | 29 ft | 10 kts | 240° |
| 2026-05-03 23:18 | 31.14461 | 121.81232 | 29 ft | 12 kts | 253° |
| 2026-05-03 23:18 | 31.14427 | 121.81107 | 29 ft | 19 kts | 252° |
| 2026-05-03 23:18 | 31.14386 | 121.80959 | 29 ft | 20 kts | 252° |
| 2026-05-03 23:19 | 31.14341 | 121.80797 | 29 ft | 22 kts | 252° |
| 2026-05-03 23:19 | 31.14293 | 121.80623 | 29 ft | 23 kts | 252° |
| 2026-05-03 23:19 | 31.14243 | 121.80443 | 29 ft | 24 kts | 252° |
| 2026-05-03 23:19 | 31.14190 | 121.80252 | 29 ft | 25 kts | 252° |
| 2026-05-03 23:20 | 31.14137 | 121.80062 | 29 ft | 25 kts | 252° |
| 2026-05-03 23:20 | 31.14093 | 121.79903 | 29 ft | 19 kts | 252° |
| 2026-05-03 23:20 | 31.14051 | 121.79750 | 29 ft | 19 kts | 256° |
| 2026-05-03 23:20 | 31.14033 | 121.79642 | 29 ft | 10 kts | 265° |
| 2026-05-03 23:21 | 31.14077 | 121.79592 | 28 ft | 10 kts | 336° |
| 2026-05-03 23:21 | 31.14153 | 121.79561 | 29 ft | 13 kts | 341° |
| 2026-05-03 23:21 | 31.14267 | 121.79516 | 28 ft | 21 kts | 342° |
| 2026-05-03 23:21 | 31.14420 | 121.79461 | 29 ft | 24 kts | 342° |
| 2026-05-03 23:22 | 31.14740 | 121.79341 | 30 ft | 24 kts | 342° |
| 2026-05-03 23:22 | 31.14895 | 121.79283 | 30 ft | 23 kts | 343° |
| 2026-05-03 23:22 | 31.15040 | 121.79228 | 29 ft | 22 kts | 342° |
| 2026-05-03 23:23 | 31.15183 | 121.79173 | 29 ft | 21 kts | 342° |
| 2026-05-03 23:23 | 31.15327 | 121.79119 | 29 ft | 22 kts | 342° |
| 2026-05-03 23:23 | 31.15482 | 121.79060 | 28 ft | 24 kts | 341° |
| 2026-05-03 23:23 | 31.15627 | 121.79006 | 28 ft | 16 kts | 342° |
| 2026-05-03 23:24 | 31.15733 | 121.78965 | 28 ft | 17 kts | 342° |
| 2026-05-03 23:24 | 31.15846 | 121.78923 | 29 ft | 19 kts | 342° |
| 2026-05-03 23:24 | 31.15974 | 121.78874 | 29 ft | 20 kts | 342° |
| 2026-05-03 23:24 | 31.16111 | 121.78822 | 29 ft | 22 kts | 342° |
| 2026-05-03 23:25 | 31.16150 | 121.78795 | 29 ft | 0 kts | 303° |
| 2026-05-03 23:25 | 31.16150 | 121.78772 | 29 ft | 5 kts | 265° |
| 2026-05-03 23:25 | 31.16151 | 121.78763 | 29 ft | 0 kts | 282° |
| 2026-05-03 23:25 | 31.16150 | 121.78760 | 29 ft | 1 kts | 267° |
| 2026-05-03 23:26 | 31.16143 | 121.78731 | 29 ft | 8 kts | 253° |
| 2026-05-03 23:26 | 31.16116 | 121.78641 | 29 ft | 13 kts | 245° |
| 2026-05-03 23:26 | 31.16060 | 121.78622 | 28 ft | 10 kts | 162° |
| 2026-05-03 23:26 | 31.16022 | 121.78637 | 28 ft | 0 kts | 161° |
| 2026-05-03 23:27 | 31.15991 | 121.78649 | 28 ft | 25 kts | 162° |
| 2026-05-03 23:27 | 31.15589 | 121.78802 | 28 ft | 94 kts | 162° |
| 2026-05-03 23:27 | 31.14769 | 121.79109 | 30 ft | 151 kts | 162° |
| 2026-05-03 23:27 | 31.13663 | 121.79521 | 330 ft | 176 kts | 162° |
| 2026-05-03 23:28 | 31.12459 | 121.79997 | 796 ft | 195 kts | 163° |
| 2026-05-03 23:28 | 31.11571 | 121.80353 | 1003 ft | 194 kts | 166° |
| 2026-05-03 23:28 | 31.09990 | 121.80873 | 1462 ft | 170 kts | 169° |
| 2026-05-03 23:28 | 31.08849 | 121.81232 | 1725 ft | 168 kts | 169° |
| 2026-05-03 23:29 | 31.07737 | 121.81587 | 1983 ft | 170 kts | 169° |
| 2026-05-03 23:29 | 31.06581 | 121.81967 | 2227 ft | 172 kts | 168° |
| 2026-05-03 23:29 | 31.05813 | 121.82220 | 2393 ft | 174 kts | 168° |
| 2026-05-03 23:29 | 31.04220 | 121.82753 | 2733 ft | 180 kts | 167° |
| 2026-05-03 23:30 | 31.03008 | 121.83124 | 2914 ft | 180 kts | 172° |
| 2026-05-03 23:30 | 31.02188 | 121.83232 | 3054 ft | 179 kts | 182° |
| 2026-05-03 23:30 | 31.00958 | 121.83037 | 3306 ft | 185 kts | 201° |
| 2026-05-03 23:30 | 30.99769 | 121.82344 | 3637 ft | 197 kts | 221° |
| 2026-05-03 23:31 | 30.98808 | 121.81166 | 4035 ft | 206 kts | 242° |
| 2026-05-03 23:31 | 30.98201 | 121.79612 | 4411 ft | 215 kts | 256° |
| 2026-05-03 23:31 | 30.97743 | 121.77881 | 4796 ft | 233 kts | 257° |
| 2026-05-03 23:31 | 30.97250 | 121.75996 | 5192 ft | 252 kts | 257° |
| 2026-05-03 23:32 | 30.96710 | 121.73992 | 5570 ft | 266 kts | 257° |
| 2026-05-03 23:32 | 30.96296 | 121.71895 | 5934 ft | 265 kts | 271° |
| 2026-05-03 23:32 | 30.96489 | 121.69782 | 6303 ft | 264 kts | 286° |
| 2026-05-03 23:32 | 30.96885 | 121.67725 | 6786 ft | 263 kts | 287° |
| 2026-05-03 23:33 | 30.97287 | 121.65628 | 7462 ft | 266 kts | 286° |
| 2026-05-03 23:33 | 30.97679 | 121.63542 | 8430 ft | 265 kts | 285° |
| 2026-05-03 23:33 | 30.98076 | 121.61428 | 9321 ft | 267 kts | 285° |
| 2026-05-03 23:33 | 30.98471 | 121.59308 | 10167 ft | 271 kts | 285° |
| 2026-05-03 23:34 | 30.98875 | 121.57136 | 10824 ft | 281 kts | 284° |
| 2026-05-03 23:34 | 30.99297 | 121.54862 | 11235 ft | 298 kts | 284° |
| 2026-05-03 23:34 | 30.99745 | 121.52430 | 11673 ft | 314 kts | 284° |
| 2026-05-03 23:34 | 31.00206 | 121.49924 | 12111 ft | 329 kts | 283° |
| 2026-05-03 23:35 | 31.00683 | 121.47315 | 12638 ft | 339 kts | 283° |
| 2026-05-03 23:35 | 31.01198 | 121.44542 | 13424 ft | 342 kts | 283° |
| 2026-05-03 23:35 | 31.01694 | 121.41840 | 14109 ft | 346 kts | 283° |
| 2026-05-03 23:35 | 31.02196 | 121.39092 | 14734 ft | 351 kts | 283° |
| 2026-05-03 23:36 | 31.02709 | 121.36287 | 15350 ft | 355 kts | 283° |
| 2026-05-03 23:36 | 31.03224 | 121.33474 | 16013 ft | 359 kts | 283° |
| 2026-05-03 23:36 | 31.03749 | 121.30600 | 16654 ft | 363 kts | 283° |
| 2026-05-03 23:36 | 31.04278 | 121.27709 | 17307 ft | 366 kts | 283° |
| 2026-05-03 23:37 | 31.04808 | 121.24805 | 17955 ft | 370 kts | 282° |
| 2026-05-03 23:37 | 31.05349 | 121.21833 | 18580 ft | 374 kts | 282° |
| 2026-05-03 23:37 | 31.05895 | 121.18878 | 19174 ft | 376 kts | 283° |
| 2026-05-03 23:37 | 31.06750 | 121.16040 | 19620 ft | 383 kts | 297° |
| 2026-05-03 23:38 | 31.08378 | 121.13593 | 19807 ft | 389 kts | 315° |
| 2026-05-03 23:38 | 31.10708 | 121.11869 | 19825 ft | 398 kts | 334° |
| 2026-05-03 23:38 | 31.13402 | 121.11160 | 19824 ft | 408 kts | 352° |
| 2026-05-03 23:38 | 31.16225 | 121.11419 | 19828 ft | 417 kts | 5° |
| 2026-05-03 23:39 | 31.19137 | 121.11791 | 19825 ft | 411 kts | 353° |
| 2026-05-03 23:39 | 31.21978 | 121.11623 | 19824 ft | 410 kts | 353° |
| 2026-05-03 23:39 | 31.24737 | 121.11538 | 19820 ft | 409 kts | 352° |
| 2026-05-03 23:39 | 31.27682 | 121.11404 | 19816 ft | 409 kts | 352° |
| 2026-05-03 23:40 | 31.30520 | 121.11261 | 19818 ft | 409 kts | 352° |
| 2026-05-03 23:40 | 31.33326 | 121.11106 | 19815 ft | 409 kts | 352° |
| 2026-05-03 23:40 | 31.36188 | 121.11071 | 19817 ft | 412 kts | 356° |
| 2026-05-03 23:40 | 31.39062 | 121.11251 | 19814 ft | 413 kts | 358° |
| 2026-05-03 23:41 | 31.41933 | 121.11449 | 19829 ft | 413 kts | 357° |
| 2026-05-03 23:41 | 31.44773 | 121.11339 | 19813 ft | 404 kts | 346° |
| 2026-05-03 23:41 | 31.47416 | 121.10414 | 19818 ft | 394 kts | 332° |
| 2026-05-03 23:41 | 31.49906 | 121.09083 | 19796 ft | 394 kts | 330° |
| 2026-05-03 23:42 | 31.52407 | 121.07740 | 19804 ft | 394 kts | 331° |
| 2026-05-03 23:42 | 31.54895 | 121.06418 | 19812 ft | 394 kts | 331° |
| 2026-05-03 23:42 | 31.57284 | 121.05149 | 19812 ft | 394 kts | 331° |
| 2026-05-03 23:42 | 31.59752 | 121.03836 | 19813 ft | 394 kts | 331° |
| 2026-05-03 23:43 | 31.62242 | 121.02511 | 19817 ft | 394 kts | 331° |
| 2026-05-03 23:43 | 31.64754 | 121.01173 | 19903 ft | 396 kts | 331° |
| 2026-05-03 23:43 | 31.67259 | 120.99838 | 20344 ft | 397 kts | 330° |
| 2026-05-03 23:43 | 31.69783 | 120.98494 | 21028 ft | 398 kts | 330° |
| 2026-05-03 23:44 | 31.72290 | 120.97156 | 21646 ft | 401 kts | 329° |
| 2026-05-03 23:44 | 31.74872 | 120.95777 | 22251 ft | 404 kts | 329° |
| 2026-05-03 23:44 | 31.77414 | 120.94418 | 22794 ft | 408 kts | 329° |
| 2026-05-03 23:44 | 31.80014 | 120.93028 | 23384 ft | 411 kts | 329° |
| 2026-05-03 23:45 | 31.82637 | 120.91625 | 23920 ft | 415 kts | 328° |
| 2026-05-03 23:45 | 31.85266 | 120.90217 | 24354 ft | 419 kts | 328° |
| 2026-05-03 23:45 | 31.87943 | 120.88783 | 24805 ft | 423 kts | 328° |
| 2026-05-03 23:45 | 31.90638 | 120.87340 | 25238 ft | 427 kts | 328° |
| 2026-05-03 23:46 | 31.93349 | 120.85886 | 25681 ft | 431 kts | 327° |
| 2026-05-03 23:46 | 31.96095 | 120.84415 | 26135 ft | 435 kts | 327° |
| 2026-05-03 23:46 | 31.98858 | 120.82937 | 26585 ft | 438 kts | 327° |
| 2026-05-03 23:46 | 32.01640 | 120.81438 | 27036 ft | 441 kts | 326° |
| 2026-05-03 23:47 | 32.04411 | 120.79944 | 27484 ft | 445 kts | 326° |
| 2026-05-03 23:47 | 32.07228 | 120.78400 | 27900 ft | 446 kts | 324° |
| 2026-05-03 23:47 | 32.09882 | 120.76562 | 28315 ft | 438 kts | 315° |
| 2026-05-03 23:47 | 32.12201 | 120.74298 | 28749 ft | 430 kts | 307° |
| 2026-05-03 23:48 | 32.14141 | 120.71681 | 29172 ft | 422 kts | 298° |
| 2026-05-03 23:48 | 32.15688 | 120.68776 | 29610 ft | 416 kts | 290° |
| 2026-05-03 23:48 | 32.16820 | 120.65667 | 30053 ft | 410 kts | 282° |
| 2026-05-03 23:48 | 32.17529 | 120.62436 | 30443 ft | 405 kts | 275° |
| 2026-05-03 23:49 | 32.17906 | 120.59132 | 30764 ft | 405 kts | 272° |
| 2026-05-03 23:49 | 32.18200 | 120.55796 | 31061 ft | 407 kts | 271° |
| 2026-05-03 23:49 | 32.18466 | 120.52461 | 31389 ft | 409 kts | 271° |
| 2026-05-03 23:49 | 32.18723 | 120.49140 | 31708 ft | 411 kts | 270° |
| 2026-05-03 23:50 | 32.18988 | 120.45745 | 32023 ft | 412 kts | 270° |
| 2026-05-03 23:50 | 32.19166 | 120.43500 | 32275 ft | 412 kts | 270° |
| 2026-05-03 23:50 | 32.19529 | 120.39019 | 32891 ft | 409 kts | 270° |
| 2026-05-03 23:50 | 32.19784 | 120.35681 | 33296 ft | 407 kts | 269° |
| 2026-05-03 23:51 | 32.19804 | 120.32350 | 33686 ft | 403 kts | 263° |
| 2026-05-03 23:51 | 32.19494 | 120.29130 | 34062 ft | 399 kts | 257° |
| 2026-05-03 23:51 | 32.18830 | 120.25904 | 34209 ft | 399 kts | 251° |
| 2026-05-03 23:51 | 32.17837 | 120.22899 | 34225 ft | 398 kts | 245° |
| 2026-05-03 23:52 | 32.15279 | 120.17122 | 34215 ft | 398 kts | 243° |
| 2026-05-03 23:52 | 32.12604 | 120.11373 | 34215 ft | 399 kts | 242° |
| 2026-05-03 23:53 | 32.09940 | 120.05626 | 34218 ft | 400 kts | 242° |
| 2026-05-03 23:53 | 32.07285 | 119.99864 | 34217 ft | 400 kts | 242° |
| 2026-05-03 23:54 | 32.04629 | 119.94092 | 34221 ft | 400 kts | 242° |
| 2026-05-03 23:54 | 32.01984 | 119.88317 | 34218 ft | 400 kts | 243° |
| 2026-05-03 23:55 | 31.99369 | 119.82506 | 34237 ft | 401 kts | 243° |
| 2026-05-03 23:55 | 31.96762 | 119.76723 | 34214 ft | 403 kts | 243° |
| 2026-05-03 23:56 | 31.94125 | 119.70909 | 34213 ft | 404 kts | 243° |
| 2026-05-03 23:56 | 31.91542 | 119.65044 | 34212 ft | 404 kts | 244° |
| 2026-05-03 23:57 | 31.89039 | 119.59105 | 34216 ft | 404 kts | 244° |
| 2026-05-03 23:57 | 31.86535 | 119.53201 | 34233 ft | 404 kts | 244° |
| 2026-05-03 23:58 | 31.84007 | 119.47306 | 34176 ft | 403 kts | 244° |
| 2026-05-03 23:58 | 31.81480 | 119.41438 | 34212 ft | 406 kts | 244° |
| 2026-05-03 23:59 | 31.78895 | 119.35483 | 34197 ft | 406 kts | 243° |
| 2026-05-03 23:59 | 31.76299 | 119.29587 | 34199 ft | 406 kts | 243° |
| 2026-05-04 00:00 | 31.73718 | 119.23738 | 34205 ft | 406 kts | 243° |
| 2026-05-04 00:00 | 31.71123 | 119.17855 | 34207 ft | 406 kts | 243° |
| 2026-05-04 00:01 | 31.68521 | 119.11963 | 34177 ft | 406 kts | 243° |
| 2026-05-04 00:01 | 31.66145 | 119.05928 | 34202 ft | 409 kts | 251° |
| 2026-05-04 00:02 | 31.65411 | 118.99291 | 34201 ft | 416 kts | 270° |
| 2026-05-04 00:02 | 31.66248 | 118.92528 | 34205 ft | 417 kts | 269° |
| 2026-05-04 00:03 | 31.66549 | 118.85751 | 34203 ft | 416 kts | 269° |
| 2026-05-04 00:03 | 31.66925 | 118.78951 | 34203 ft | 417 kts | 270° |
| 2026-05-04 00:04 | 31.67400 | 118.72165 | 34202 ft | 417 kts | 270° |
| 2026-05-04 00:04 | 31.67903 | 118.65409 | 34200 ft | 417 kts | 270° |
| 2026-05-04 00:05 | 31.68407 | 118.58598 | 34199 ft | 416 kts | 270° |
| 2026-05-04 00:05 | 31.68896 | 118.51867 | 34191 ft | 416 kts | 270° |
| 2026-05-04 00:06 | 31.69378 | 118.45130 | 34195 ft | 416 kts | 270° |
| 2026-05-04 00:06 | 31.69861 | 118.38352 | 34190 ft | 416 kts | 270° |
| 2026-05-04 00:07 | 31.70340 | 118.31565 | 34193 ft | 415 kts | 270° |
| 2026-05-04 00:07 | 31.70812 | 118.24856 | 34189 ft | 415 kts | 270° |
| 2026-05-04 00:08 | 31.71282 | 118.18105 | 34186 ft | 415 kts | 270° |
| 2026-05-04 00:08 | 31.71554 | 118.11366 | 34183 ft | 411 kts | 264° |
| 2026-05-04 00:09 | 31.70659 | 118.04773 | 34151 ft | 408 kts | 256° |
| 2026-05-04 00:09 | 31.69345 | 117.98287 | 34184 ft | 410 kts | 255° |
| 2026-05-04 00:10 | 31.67978 | 117.91774 | 34200 ft | 410 kts | 255° |
| 2026-05-04 00:10 | 31.66622 | 117.85279 | 34200 ft | 410 kts | 255° |
| 2026-05-04 00:11 | 31.65282 | 117.78827 | 34184 ft | 410 kts | 255° |
| 2026-05-04 00:11 | 31.63932 | 117.72331 | 34185 ft | 410 kts | 255° |
| 2026-05-04 00:12 | 31.62581 | 117.65851 | 34186 ft | 410 kts | 255° |
| 2026-05-04 00:12 | 31.61221 | 117.59344 | 34179 ft | 410 kts | 255° |
| 2026-05-04 00:13 | 31.59923 | 117.52846 | 34184 ft | 410 kts | 257° |
| 2026-05-04 00:13 | 31.58794 | 117.46290 | 34187 ft | 411 kts | 257° |
| 2026-05-04 00:14 | 31.57660 | 117.39695 | 34183 ft | 411 kts | 257° |
| 2026-05-04 00:14 | 31.56696 | 117.34233 | 34182 ft | 411 kts | 257° |
| 2026-05-04 00:15 | 31.55322 | 117.26573 | 34167 ft | 411 kts | 257° |
| 2026-05-04 00:15 | 31.54163 | 117.20040 | 34184 ft | 411 kts | 257° |
| 2026-05-04 00:16 | 31.53010 | 117.13488 | 34176 ft | 411 kts | 257° |
| 2026-05-04 00:16 | 31.52045 | 117.08035 | 34174 ft | 410 kts | 257° |
| 2026-05-04 00:17 | 31.50882 | 117.01502 | 34177 ft | 410 kts | 257° |
| 2026-05-04 00:17 | 31.49712 | 116.94959 | 34177 ft | 410 kts | 257° |
| 2026-05-04 00:18 | 31.48475 | 116.88437 | 34149 ft | 409 kts | 253° |
| 2026-05-04 00:18 | 31.46231 | 116.82314 | 34177 ft | 411 kts | 240° |
| 2026-05-04 00:19 | 31.42920 | 116.76856 | 34167 ft | 413 kts | 236° |
| 2026-05-04 00:19 | 31.39406 | 116.71522 | 34181 ft | 414 kts | 235° |
| 2026-05-04 00:20 | 31.35887 | 116.66209 | 34190 ft | 413 kts | 235° |
| 2026-05-04 00:20 | 31.32375 | 116.60874 | 34184 ft | 414 kts | 235° |
| 2026-05-04 00:21 | 31.28857 | 116.55526 | 34193 ft | 414 kts | 235° |
| 2026-05-04 00:21 | 31.25365 | 116.50204 | 34195 ft | 415 kts | 236° |
| 2026-05-04 00:22 | 31.21834 | 116.44831 | 34201 ft | 415 kts | 235° |
| 2026-05-04 00:22 | 31.18324 | 116.39505 | 34203 ft | 415 kts | 236° |
| 2026-05-04 00:23 | 31.14817 | 116.34178 | 34206 ft | 415 kts | 235° |
| 2026-05-04 00:23 | 31.11287 | 116.28834 | 34210 ft | 414 kts | 235° |
| 2026-05-04 00:24 | 31.07767 | 116.23525 | 34223 ft | 415 kts | 235° |
| 2026-05-04 00:24 | 31.04230 | 116.18187 | 34222 ft | 416 kts | 235° |
| 2026-05-04 00:25 | 31.00713 | 116.12861 | 34222 ft | 414 kts | 235° |
| 2026-05-04 00:25 | 30.97182 | 116.07542 | 34202 ft | 415 kts | 235° |
| 2026-05-04 00:26 | 30.93666 | 116.02263 | 34219 ft | 414 kts | 235° |
| 2026-05-04 00:26 | 30.90120 | 115.96940 | 34216 ft | 416 kts | 235° |
| 2026-05-04 00:27 | 30.86578 | 115.91628 | 34225 ft | 416 kts | 235° |
| 2026-05-04 00:27 | 30.83036 | 115.86302 | 34222 ft | 416 kts | 236° |
| 2026-05-04 00:28 | 30.79523 | 115.80979 | 34225 ft | 416 kts | 236° |
| 2026-05-04 00:28 | 30.75995 | 115.75613 | 34227 ft | 416 kts | 236° |
| 2026-05-04 00:29 | 30.72491 | 115.70296 | 34208 ft | 415 kts | 236° |
| 2026-05-04 00:29 | 30.68965 | 115.64968 | 34230 ft | 417 kts | 236° |
| 2026-05-04 00:30 | 30.65430 | 115.59625 | 34226 ft | 417 kts | 236° |
| 2026-05-04 00:30 | 30.61883 | 115.54275 | 34226 ft | 417 kts | 236° |
| 2026-05-04 00:31 | 30.58340 | 115.48939 | 34221 ft | 417 kts | 236° |
| 2026-05-04 00:31 | 30.54797 | 115.43612 | 34220 ft | 417 kts | 235° |
| 2026-05-04 00:32 | 30.51249 | 115.38284 | 34220 ft | 418 kts | 235° |
| 2026-05-04 00:32 | 30.47791 | 115.32921 | 34227 ft | 417 kts | 239° |
| 2026-05-04 00:33 | 30.44624 | 115.23609 | 34226 ft | 415 kts | 259° |
| 2026-05-04 00:34 | 30.44493 | 115.16911 | 34229 ft | 420 kts | 272° |
| 2026-05-04 00:34 | 30.45162 | 115.10215 | 34228 ft | 421 kts | 273° |
| 2026-05-04 00:35 | 30.45898 | 115.03478 | 34228 ft | 421 kts | 273° |
| 2026-05-04 00:35 | 30.46613 | 114.96732 | 34229 ft | 420 kts | 273° |
| 2026-05-04 00:36 | 30.47303 | 114.90029 | 34224 ft | 419 kts | 273° |
| 2026-05-04 00:36 | 30.47986 | 114.83315 | 34222 ft | 419 kts | 273° |
| 2026-05-04 00:37 | 30.48666 | 114.76598 | 34222 ft | 419 kts | 272° |
| 2026-05-04 00:37 | 30.49345 | 114.69858 | 34213 ft | 419 kts | 272° |
| 2026-05-04 00:38 | 30.50014 | 114.63187 | 34207 ft | 419 kts | 272° |
| 2026-05-04 00:38 | 30.50682 | 114.56490 | 34214 ft | 419 kts | 272° |
| 2026-05-04 00:39 | 30.51348 | 114.49778 | 34207 ft | 419 kts | 272° |
| 2026-05-04 00:39 | 30.52010 | 114.43076 | 34207 ft | 419 kts | 272° |
| 2026-05-04 00:40 | 30.52666 | 114.36397 | 34213 ft | 419 kts | 272° |
| 2026-05-04 00:40 | 30.53322 | 114.29679 | 34205 ft | 419 kts | 272° |
| 2026-05-04 00:41 | 30.53973 | 114.22985 | 34200 ft | 419 kts | 272° |
| 2026-05-04 00:41 | 30.54626 | 114.16261 | 34201 ft | 419 kts | 272° |
| 2026-05-04 00:42 | 30.55265 | 114.09544 | 34175 ft | 419 kts | 272° |
| 2026-05-04 00:42 | 30.55914 | 114.02815 | 34208 ft | 420 kts | 272° |
| 2026-05-04 00:43 | 30.56564 | 113.96052 | 34198 ft | 420 kts | 272° |
| 2026-05-04 00:43 | 30.57178 | 113.89306 | 34197 ft | 420 kts | 272° |
| 2026-05-04 00:44 | 30.57641 | 113.82560 | 34200 ft | 418 kts | 266° |
| 2026-05-04 00:44 | 30.57473 | 113.75837 | 34199 ft | 417 kts | 265° |
| 2026-05-04 00:45 | 30.57222 | 113.69149 | 34200 ft | 418 kts | 265° |
| 2026-05-04 00:45 | 30.56957 | 113.62363 | 34201 ft | 418 kts | 265° |
| 2026-05-04 00:46 | 30.56698 | 113.55632 | 34204 ft | 418 kts | 265° |
| 2026-05-04 00:46 | 30.56440 | 113.48941 | 34203 ft | 418 kts | 265° |
| 2026-05-04 00:47 | 30.56177 | 113.42202 | 34215 ft | 418 kts | 265° |
| 2026-05-04 00:47 | 30.55910 | 113.35447 | 34201 ft | 421 kts | 265° |
| 2026-05-04 00:48 | 30.55637 | 113.28638 | 34201 ft | 422 kts | 265° |
| 2026-05-04 00:48 | 30.55362 | 113.21850 | 34206 ft | 422 kts | 265° |
| 2026-05-04 00:49 | 30.55083 | 113.15056 | 34203 ft | 422 kts | 265° |
| 2026-05-04 00:49 | 30.54807 | 113.08233 | 34204 ft | 422 kts | 265° |
| 2026-05-04 00:50 | 30.54519 | 113.01440 | 34206 ft | 424 kts | 265° |
| 2026-05-04 00:50 | 30.54227 | 112.94595 | 34205 ft | 424 kts | 265° |
| 2026-05-04 00:51 | 30.53938 | 112.87816 | 34205 ft | 424 kts | 265° |
| 2026-05-04 00:51 | 30.53646 | 112.80973 | 34176 ft | 424 kts | 265° |
| 2026-05-04 00:52 | 30.53343 | 112.74152 | 34207 ft | 424 kts | 265° |
| 2026-05-04 00:52 | 30.53036 | 112.67304 | 34203 ft | 425 kts | 265° |
| 2026-05-04 00:53 | 30.52729 | 112.60486 | 34206 ft | 425 kts | 265° |
| 2026-05-04 00:53 | 30.52419 | 112.53645 | 34204 ft | 425 kts | 265° |
| 2026-05-04 00:54 | 30.52103 | 112.46775 | 34202 ft | 425 kts | 265° |
| 2026-05-04 00:54 | 30.51784 | 112.39923 | 34203 ft | 425 kts | 266° |
| 2026-05-04 00:55 | 30.51462 | 112.33087 | 34205 ft | 425 kts | 266° |
| 2026-05-04 00:55 | 30.51137 | 112.26244 | 34205 ft | 425 kts | 266° |
| 2026-05-04 00:56 | 30.50809 | 112.19426 | 34203 ft | 425 kts | 266° |
| 2026-05-04 00:56 | 30.50476 | 112.12587 | 34208 ft | 425 kts | 266° |
| 2026-05-04 00:57 | 30.50138 | 112.05722 | 34206 ft | 426 kts | 266° |
| 2026-05-04 00:57 | 30.49797 | 111.98856 | 34204 ft | 426 kts | 266° |
| 2026-05-04 00:58 | 30.49453 | 111.91993 | 34200 ft | 426 kts | 266° |
| 2026-05-04 00:58 | 30.49105 | 111.85125 | 34199 ft | 426 kts | 266° |
| 2026-05-04 00:59 | 30.48754 | 111.78288 | 34214 ft | 426 kts | 266° |
| 2026-05-04 00:59 | 30.48400 | 111.71442 | 34203 ft | 426 kts | 266° |
| 2026-05-04 01:00 | 30.48048 | 111.64593 | 34176 ft | 426 kts | 266° |
| 2026-05-04 01:00 | 30.47674 | 111.57712 | 34205 ft | 426 kts | 266° |
| 2026-05-04 01:01 | 30.47298 | 111.50874 | 34204 ft | 426 kts | 266° |
| 2026-05-04 01:01 | 30.46565 | 111.44085 | 34203 ft | 426 kts | 262° |
| 2026-05-04 01:02 | 30.45648 | 111.37305 | 34204 ft | 426 kts | 262° |
| 2026-05-04 01:02 | 30.44711 | 111.30505 | 34204 ft | 426 kts | 262° |
| 2026-05-04 01:03 | 30.43763 | 111.23726 | 34210 ft | 426 kts | 261° |
| 2026-05-04 01:03 | 30.42818 | 111.16951 | 34210 ft | 426 kts | 261° |
| 2026-05-04 01:04 | 30.42024 | 111.11313 | 34218 ft | 426 kts | 262° |
| 2026-05-04 01:04 | 30.41071 | 111.04555 | 34215 ft | 426 kts | 262° |
| 2026-05-04 01:05 | 30.39954 | 110.96650 | 34226 ft | 426 kts | 262° |
| 2026-05-04 01:05 | 30.39147 | 110.90950 | 34229 ft | 427 kts | 262° |
| 2026-05-04 01:06 | 30.38193 | 110.84209 | 34232 ft | 427 kts | 262° |
| 2026-05-04 01:06 | 30.37226 | 110.77426 | 34234 ft | 427 kts | 262° |
| 2026-05-04 01:07 | 30.36257 | 110.70650 | 34240 ft | 426 kts | 261° |
| 2026-05-04 01:07 | 30.35284 | 110.63886 | 34247 ft | 427 kts | 261° |
| 2026-05-04 01:08 | 30.34314 | 110.57146 | 34255 ft | 426 kts | 261° |
| 2026-05-04 01:08 | 30.33327 | 110.50337 | 34258 ft | 427 kts | 261° |
| 2026-05-04 01:09 | 30.32349 | 110.43643 | 34260 ft | 424 kts | 262° |
| 2026-05-04 01:09 | 30.31360 | 110.36888 | 34258 ft | 425 kts | 262° |
| 2026-05-04 01:10 | 30.30382 | 110.30143 | 34261 ft | 427 kts | 262° |
| 2026-05-04 01:10 | 30.29376 | 110.23361 | 34257 ft | 428 kts | 261° |
| 2026-05-04 01:11 | 30.28375 | 110.16585 | 34259 ft | 426 kts | 262° |
| 2026-05-04 01:11 | 30.27379 | 110.09814 | 34258 ft | 426 kts | 262° |
| 2026-05-04 01:12 | 30.26366 | 110.03046 | 34258 ft | 427 kts | 261° |
| 2026-05-04 01:12 | 30.25359 | 109.96263 | 34249 ft | 428 kts | 262° |
| 2026-05-04 01:13 | 30.24352 | 109.89516 | 34261 ft | 428 kts | 262° |
| 2026-05-04 01:13 | 30.23333 | 109.82721 | 34260 ft | 428 kts | 262° |
| 2026-05-04 01:14 | 30.22316 | 109.75932 | 34263 ft | 428 kts | 262° |
| 2026-05-04 01:14 | 30.21292 | 109.69200 | 34260 ft | 427 kts | 261° |
| 2026-05-04 01:15 | 30.20255 | 109.62432 | 34263 ft | 428 kts | 261° |
| 2026-05-04 01:15 | 30.18731 | 109.55766 | 34260 ft | 431 kts | 256° |
| 2026-05-04 01:16 | 30.16976 | 109.49101 | 34261 ft | 431 kts | 255° |
| 2026-05-04 01:16 | 30.15213 | 109.42502 | 34267 ft | 430 kts | 255° |
| 2026-05-04 01:17 | 30.13445 | 109.35910 | 34269 ft | 430 kts | 256° |
| 2026-05-04 01:17 | 30.11684 | 109.29278 | 34268 ft | 431 kts | 256° |
| 2026-05-04 01:18 | 30.09932 | 109.22700 | 34266 ft | 431 kts | 255° |
| 2026-05-04 01:18 | 30.08168 | 109.16093 | 34242 ft | 430 kts | 255° |
| 2026-05-04 01:19 | 30.06386 | 109.09486 | 34272 ft | 431 kts | 255° |
| 2026-05-04 01:19 | 30.04602 | 109.02895 | 34271 ft | 431 kts | 255° |
| 2026-05-04 01:20 | 30.02799 | 108.96253 | 34276 ft | 430 kts | 255° |
| 2026-05-04 01:20 | 30.01065 | 108.89684 | 34272 ft | 432 kts | 256° |
| 2026-05-04 01:21 | 29.99324 | 108.83041 | 34267 ft | 431 kts | 256° |
| 2026-05-04 01:21 | 29.97572 | 108.76436 | 34275 ft | 430 kts | 256° |
| 2026-05-04 01:22 | 29.95824 | 108.69815 | 34275 ft | 432 kts | 255° |
| 2026-05-04 01:22 | 29.94072 | 108.63169 | 34271 ft | 433 kts | 256° |
| 2026-05-04 01:23 | 29.92326 | 108.56590 | 34278 ft | 432 kts | 256° |
| 2026-05-04 01:23 | 29.90551 | 108.49931 | 34274 ft | 431 kts | 256° |
| 2026-05-04 01:24 | 29.88802 | 108.43366 | 34279 ft | 431 kts | 256° |
| 2026-05-04 01:24 | 29.87046 | 108.36754 | 34272 ft | 432 kts | 256° |
| 2026-05-04 01:25 | 29.85260 | 108.30109 | 34275 ft | 433 kts | 255° |
| 2026-05-04 01:25 | 29.83485 | 108.23511 | 34273 ft | 432 kts | 256° |
| 2026-05-04 01:26 | 29.81707 | 108.16872 | 34275 ft | 433 kts | 256° |
| 2026-05-04 01:26 | 29.79921 | 108.10235 | 34271 ft | 433 kts | 255° |
| 2026-05-04 01:27 | 29.78133 | 108.03617 | 34274 ft | 433 kts | 255° |
| 2026-05-04 01:27 | 29.76350 | 107.97031 | 34268 ft | 433 kts | 255° |
| 2026-05-04 01:28 | 29.74549 | 107.90373 | 34269 ft | 433 kts | 255° |
| 2026-05-04 01:28 | 29.72764 | 107.83813 | 34266 ft | 433 kts | 255° |
| 2026-05-04 01:29 | 29.70961 | 107.77218 | 34271 ft | 432 kts | 255° |
| 2026-05-04 01:29 | 29.69165 | 107.70650 | 34261 ft | 430 kts | 256° |
| 2026-05-04 01:30 | 29.67356 | 107.64052 | 34263 ft | 432 kts | 255° |
| 2026-05-04 01:30 | 29.66204 | 107.57323 | 34264 ft | 429 kts | 268° |
| 2026-05-04 01:31 | 29.66698 | 107.50504 | 34266 ft | 429 kts | 282° |
| 2026-05-04 01:31 | 29.68340 | 107.43898 | 34259 ft | 431 kts | 285° |
| 2026-05-04 01:32 | 29.70117 | 107.37300 | 34259 ft | 431 kts | 285° |
| 2026-05-04 01:32 | 29.71638 | 107.30690 | 34257 ft | 430 kts | 281° |
| 2026-05-04 01:33 | 29.73078 | 107.23962 | 34255 ft | 432 kts | 287° |
| 2026-05-04 01:33 | 29.75832 | 107.17801 | 34257 ft | 439 kts | 302° |
| 2026-05-04 01:34 | 29.80036 | 107.12654 | 34259 ft | 447 kts | 311° |
| 2026-05-04 01:34 | 29.84645 | 107.07849 | 34283 ft | 448 kts | 313° |
| 2026-05-04 01:35 | 29.89287 | 107.03064 | 34252 ft | 448 kts | 313° |
| 2026-05-04 01:35 | 29.93917 | 106.98246 | 34252 ft | 447 kts | 312° |
| 2026-05-04 01:36 | 29.98525 | 106.93417 | 34255 ft | 447 kts | 312° |
| 2026-05-04 01:36 | 30.03112 | 106.88597 | 34248 ft | 447 kts | 312° |
| 2026-05-04 01:37 | 30.07712 | 106.83759 | 34245 ft | 448 kts | 312° |
| 2026-05-04 01:37 | 30.12328 | 106.78907 | 34246 ft | 448 kts | 312° |
| 2026-05-04 01:38 | 30.16915 | 106.74074 | 34247 ft | 447 kts | 312° |
| 2026-05-04 01:38 | 30.21515 | 106.69209 | 34238 ft | 447 kts | 312° |
| 2026-05-04 01:39 | 30.26119 | 106.64336 | 34243 ft | 448 kts | 312° |
| 2026-05-04 01:39 | 30.30702 | 106.59483 | 34238 ft | 448 kts | 312° |
| 2026-05-04 01:40 | 30.35281 | 106.54629 | 34238 ft | 448 kts | 312° |
| 2026-05-04 01:40 | 30.39875 | 106.49753 | 34236 ft | 448 kts | 312° |
| 2026-05-04 01:41 | 30.44455 | 106.44884 | 34235 ft | 448 kts | 312° |
| 2026-05-04 01:41 | 30.49058 | 106.39983 | 34244 ft | 448 kts | 312° |
| 2026-05-04 01:42 | 30.53634 | 106.35104 | 34242 ft | 450 kts | 312° |
| 2026-05-04 01:42 | 30.58221 | 106.30164 | 34236 ft | 448 kts | 310° |
| 2026-05-04 01:43 | 30.62031 | 106.24531 | 34236 ft | 442 kts | 301° |
| 2026-05-04 01:43 | 30.65374 | 106.18568 | 34238 ft | 441 kts | 299° |
| 2026-05-04 01:44 | 30.68668 | 106.12540 | 34236 ft | 441 kts | 299° |
| 2026-05-04 01:44 | 30.71857 | 106.06462 | 34233 ft | 439 kts | 294° |
| 2026-05-04 01:45 | 30.73422 | 105.99674 | 34237 ft | 436 kts | 273° |
| 2026-05-04 01:45 | 30.72382 | 105.89133 | 34234 ft | 440 kts | 263° |
| 2026-05-04 01:46 | 30.71341 | 105.82158 | 34235 ft | 440 kts | 263° |
| 2026-05-04 01:46 | 30.70304 | 105.75101 | 34235 ft | 440 kts | 263° |
| 2026-05-04 01:47 | 30.69304 | 105.68134 | 34233 ft | 440 kts | 263° |
| 2026-05-04 01:47 | 30.68298 | 105.61114 | 34237 ft | 440 kts | 263° |
| 2026-05-04 01:48 | 30.67292 | 105.54096 | 34233 ft | 441 kts | 263° |
| 2026-05-04 01:48 | 30.66283 | 105.47093 | 34231 ft | 441 kts | 263° |
| 2026-05-04 01:49 | 30.65267 | 105.40076 | 34230 ft | 441 kts | 263° |
| 2026-05-04 01:49 | 30.64245 | 105.33048 | 34228 ft | 441 kts | 263° |
| 2026-05-04 01:50 | 30.63225 | 105.26055 | 34223 ft | 441 kts | 263° |
| 2026-05-04 01:50 | 30.62183 | 105.19024 | 34227 ft | 442 kts | 263° |
| 2026-05-04 01:51 | 30.61142 | 105.12012 | 34217 ft | 440 kts | 263° |
| 2026-05-04 01:51 | 30.60101 | 105.05028 | 34227 ft | 439 kts | 263° |
| 2026-05-04 01:52 | 30.59237 | 104.99210 | 34212 ft | 439 kts | 263° |
| 2026-05-04 01:52 | 30.58204 | 104.92230 | 34214 ft | 439 kts | 264° |
| 2026-05-04 01:53 | 30.57147 | 104.85239 | 34221 ft | 440 kts | 264° |
| 2026-05-04 01:53 | 30.56084 | 104.78253 | 34221 ft | 440 kts | 263° |
| 2026-05-04 01:54 | 30.55025 | 104.71253 | 34226 ft | 440 kts | 264° |
| 2026-05-04 01:54 | 30.53970 | 104.64261 | 34231 ft | 440 kts | 264° |
| 2026-05-04 01:55 | 30.52919 | 104.57317 | 34233 ft | 440 kts | 264° |
| 2026-05-04 01:55 | 30.51865 | 104.50334 | 34239 ft | 440 kts | 264° |
| 2026-05-04 01:56 | 30.50814 | 104.43349 | 34241 ft | 440 kts | 264° |
| 2026-05-04 01:56 | 30.49761 | 104.36355 | 34240 ft | 440 kts | 264° |
| 2026-05-04 01:57 | 30.48719 | 104.29392 | 34237 ft | 439 kts | 264° |
| 2026-05-04 01:57 | 30.47685 | 104.22395 | 34232 ft | 440 kts | 264° |
| 2026-05-04 01:58 | 30.46623 | 104.15401 | 34222 ft | 440 kts | 264° |
| 2026-05-04 01:58 | 30.45551 | 104.08425 | 34214 ft | 439 kts | 264° |
| 2026-05-04 01:59 | 30.44479 | 104.01440 | 34225 ft | 439 kts | 264° |
| 2026-05-04 01:59 | 30.43414 | 103.94468 | 34226 ft | 439 kts | 264° |
| 2026-05-04 02:00 | 30.42350 | 103.87503 | 34224 ft | 439 kts | 264° |
| 2026-05-04 02:00 | 30.41277 | 103.80569 | 34220 ft | 440 kts | 264° |
| 2026-05-04 02:01 | 30.40189 | 103.73583 | 34216 ft | 440 kts | 264° |
| 2026-05-04 02:01 | 30.39106 | 103.66608 | 34212 ft | 440 kts | 264° |
| 2026-05-04 02:02 | 30.38017 | 103.59578 | 34210 ft | 440 kts | 264° |
| 2026-05-04 02:02 | 30.36945 | 103.52654 | 34212 ft | 440 kts | 264° |
| 2026-05-04 02:03 | 30.35853 | 103.45660 | 34218 ft | 441 kts | 264° |
| 2026-05-04 02:03 | 30.34743 | 103.38674 | 34219 ft | 441 kts | 264° |
| 2026-05-04 02:04 | 30.33636 | 103.31703 | 34221 ft | 441 kts | 264° |
| 2026-05-04 02:04 | 30.32530 | 103.24710 | 34220 ft | 441 kts | 264° |
| 2026-05-04 02:05 | 30.31429 | 103.17729 | 34230 ft | 441 kts | 264° |
| 2026-05-04 02:05 | 30.30322 | 103.10788 | 34212 ft | 442 kts | 264° |
| 2026-05-04 02:06 | 30.29164 | 103.03778 | 34225 ft | 440 kts | 264° |
| 2026-05-04 02:06 | 30.28025 | 102.96875 | 34227 ft | 438 kts | 264° |
| 2026-05-04 02:07 | 30.26901 | 102.89952 | 34235 ft | 438 kts | 264° |
| 2026-05-04 02:07 | 30.25774 | 102.83023 | 34240 ft | 438 kts | 264° |
| 2026-05-04 02:08 | 30.24629 | 102.76094 | 34246 ft | 439 kts | 264° |
| 2026-05-04 02:08 | 30.23489 | 102.69175 | 34275 ft | 440 kts | 264° |
| 2026-05-04 02:09 | 30.22313 | 102.62247 | 34260 ft | 439 kts | 264° |
| 2026-05-04 02:09 | 30.21141 | 102.55345 | 34262 ft | 439 kts | 264° |
| 2026-05-04 02:10 | 30.19981 | 102.48430 | 34266 ft | 437 kts | 264° |
| 2026-05-04 02:10 | 30.18828 | 102.41522 | 34276 ft | 438 kts | 264° |
| 2026-05-04 02:11 | 30.17672 | 102.34571 | 34294 ft | 441 kts | 264° |
| 2026-05-04 02:11 | 30.16516 | 102.27644 | 34320 ft | 439 kts | 264° |
| 2026-05-04 02:12 | 30.15369 | 102.20731 | 34286 ft | 437 kts | 264° |
| 2026-05-04 02:12 | 30.14226 | 102.13861 | 34318 ft | 439 kts | 264° |
| 2026-05-04 02:13 | 30.13071 | 102.06937 | 34325 ft | 439 kts | 264° |
| 2026-05-04 02:13 | 30.11914 | 102.00014 | 34334 ft | 435 kts | 264° |
| 2026-05-04 02:14 | 30.10776 | 101.93181 | 34344 ft | 432 kts | 264° |
| 2026-05-04 02:14 | 30.09640 | 101.86374 | 34355 ft | 431 kts | 264° |
| 2026-05-04 02:15 | 30.08519 | 101.79565 | 34363 ft | 431 kts | 264° |
| 2026-05-04 02:15 | 30.07396 | 101.72764 | 34377 ft | 431 kts | 264° |
| 2026-05-04 02:16 | 30.06266 | 101.65985 | 34373 ft | 432 kts | 264° |
| 2026-05-04 02:16 | 30.05137 | 101.59180 | 34371 ft | 431 kts | 264° |
| 2026-05-04 02:17 | 30.04014 | 101.52387 | 34373 ft | 431 kts | 264° |
| 2026-05-04 02:17 | 30.02893 | 101.45607 | 34357 ft | 430 kts | 264° |
| 2026-05-04 02:18 | 30.01766 | 101.38820 | 34363 ft | 430 kts | 264° |
| 2026-05-04 02:18 | 30.00644 | 101.32033 | 34369 ft | 431 kts | 264° |
| 2026-05-04 02:19 | 29.99521 | 101.25240 | 34358 ft | 432 kts | 264° |
| 2026-05-04 02:19 | 29.98399 | 101.18431 | 34359 ft | 432 kts | 264° |
| 2026-05-04 02:20 | 29.97278 | 101.11596 | 34352 ft | 432 kts | 264° |
| 2026-05-04 02:20 | 29.96169 | 101.04793 | 34357 ft | 431 kts | 264° |
| 2026-05-04 02:21 | 29.95043 | 100.97985 | 34348 ft | 431 kts | 264° |
| 2026-05-04 02:21 | 29.93946 | 100.91240 | 34337 ft | 431 kts | 264° |
| 2026-05-04 02:22 | 29.92863 | 100.84433 | 34353 ft | 431 kts | 264° |
| 2026-05-04 02:22 | 29.91778 | 100.77643 | 34349 ft | 431 kts | 265° |
| 2026-05-04 02:23 | 29.90693 | 100.70844 | 34357 ft | 432 kts | 264° |
| 2026-05-04 02:23 | 29.89607 | 100.64037 | 34354 ft | 431 kts | 264° |
| 2026-05-04 02:24 | 29.88533 | 100.57262 | 34342 ft | 431 kts | 264° |
| 2026-05-04 02:24 | 29.87451 | 100.50455 | 34348 ft | 432 kts | 264° |
| 2026-05-04 02:25 | 29.86367 | 100.43644 | 34351 ft | 432 kts | 264° |
| 2026-05-04 02:25 | 29.85287 | 100.36841 | 34351 ft | 432 kts | 264° |
| 2026-05-04 02:26 | 29.84210 | 100.30037 | 34354 ft | 432 kts | 264° |
| 2026-05-04 02:26 | 29.83133 | 100.23230 | 34349 ft | 432 kts | 264° |
| 2026-05-04 02:27 | 29.82069 | 100.16418 | 34346 ft | 432 kts | 264° |
| 2026-05-04 02:27 | 29.81020 | 100.09635 | 34342 ft | 433 kts | 264° |
| 2026-05-04 02:28 | 29.79967 | 100.02799 | 34351 ft | 433 kts | 265° |
| 2026-05-04 02:28 | 29.78916 | 99.95969 | 34344 ft | 434 kts | 265° |
| 2026-05-04 02:29 | 29.77858 | 99.89123 | 34343 ft | 433 kts | 265° |
| 2026-05-04 02:29 | 29.76808 | 99.82303 | 34340 ft | 433 kts | 265° |
| 2026-05-04 02:30 | 29.75762 | 99.75470 | 34346 ft | 435 kts | 265° |
| 2026-05-04 02:30 | 29.74729 | 99.68603 | 34340 ft | 436 kts | 265° |
| 2026-05-04 02:31 | 29.73713 | 99.61733 | 34341 ft | 436 kts | 265° |
| 2026-05-04 02:31 | 29.72704 | 99.54873 | 34345 ft | 436 kts | 265° |
| 2026-05-04 02:32 | 29.71687 | 99.47951 | 34336 ft | 436 kts | 265° |
| 2026-05-04 02:32 | 29.70688 | 99.41103 | 34323 ft | 437 kts | 265° |
| 2026-05-04 02:33 | 29.69688 | 99.34179 | 34322 ft | 438 kts | 265° |
| 2026-05-04 02:33 | 29.68700 | 99.27275 | 34318 ft | 437 kts | 265° |
| 2026-05-04 02:34 | 29.67720 | 99.20376 | 34308 ft | 437 kts | 265° |
| 2026-05-04 02:34 | 29.66737 | 99.13475 | 34313 ft | 438 kts | 265° |
| 2026-05-04 02:35 | 29.65761 | 99.06623 | 34294 ft | 438 kts | 265° |
| 2026-05-04 02:35 | 29.64805 | 98.99736 | 34308 ft | 440 kts | 265° |
| 2026-05-04 02:36 | 29.63852 | 98.92814 | 34292 ft | 438 kts | 265° |
| 2026-05-04 02:36 | 29.62900 | 98.85895 | 34297 ft | 439 kts | 265° |
| 2026-05-04 02:37 | 29.61939 | 98.78964 | 34299 ft | 439 kts | 265° |
| 2026-05-04 02:37 | 29.60983 | 98.72045 | 34301 ft | 439 kts | 265° |
| 2026-05-04 02:38 | 29.60045 | 98.65101 | 34289 ft | 441 kts | 265° |
| 2026-05-04 02:38 | 29.59115 | 98.58158 | 34292 ft | 442 kts | 265° |
| 2026-05-04 02:39 | 29.58346 | 98.52393 | 34307 ft | 442 kts | 265° |
| 2026-05-04 02:39 | 29.57416 | 98.45391 | 34307 ft | 442 kts | 265° |
| 2026-05-04 02:40 | 29.56330 | 98.37272 | 34311 ft | 443 kts | 265° |
| 2026-05-04 02:40 | 29.55585 | 98.31458 | 34308 ft | 444 kts | 265° |
| 2026-05-04 02:41 | 29.54715 | 98.24423 | 34311 ft | 446 kts | 265° |
| 2026-05-04 02:41 | 29.53850 | 98.17407 | 34309 ft | 446 kts | 265° |
| 2026-05-04 02:42 | 29.52983 | 98.10363 | 34308 ft | 446 kts | 265° |
| 2026-05-04 02:42 | 29.52111 | 98.03299 | 34306 ft | 446 kts | 265° |
| 2026-05-04 02:43 | 29.51242 | 97.96269 | 34293 ft | 446 kts | 265° |
| 2026-05-04 02:43 | 29.50386 | 97.89214 | 34297 ft | 446 kts | 265° |
| 2026-05-04 02:44 | 29.49551 | 97.82244 | 34299 ft | 446 kts | 265° |
| 2026-05-04 02:44 | 29.48705 | 97.75188 | 34295 ft | 446 kts | 265° |
| 2026-05-04 02:45 | 29.47862 | 97.68149 | 34301 ft | 446 kts | 265° |
| 2026-05-04 02:45 | 29.47032 | 97.61170 | 34302 ft | 445 kts | 265° |
| 2026-05-04 02:46 | 29.46204 | 97.54147 | 34315 ft | 445 kts | 265° |
| 2026-05-04 02:46 | 29.45394 | 97.47094 | 34320 ft | 446 kts | 265° |
| 2026-05-04 02:47 | 29.44590 | 97.40087 | 34318 ft | 445 kts | 265° |
| 2026-05-04 02:47 | 29.43774 | 97.33037 | 34317 ft | 445 kts | 265° |
| 2026-05-04 02:48 | 29.42971 | 97.26019 | 34341 ft | 446 kts | 265° |
| 2026-05-04 02:48 | 29.42161 | 97.18990 | 34337 ft | 445 kts | 265° |
| 2026-05-04 02:49 | 29.41355 | 97.11982 | 34344 ft | 445 kts | 265° |
| 2026-05-04 02:49 | 29.40552 | 97.04972 | 34350 ft | 445 kts | 265° |
| 2026-05-04 02:50 | 29.39747 | 96.97980 | 34349 ft | 445 kts | 265° |
| 2026-05-04 02:50 | 29.38948 | 96.90998 | 34348 ft | 445 kts | 265° |
| 2026-05-04 02:51 | 29.38150 | 96.83986 | 34329 ft | 445 kts | 265° |
| 2026-05-04 02:51 | 29.37368 | 96.76937 | 34346 ft | 444 kts | 265° |
| 2026-05-04 02:52 | 29.36595 | 96.69904 | 34336 ft | 444 kts | 265° |
| 2026-05-04 02:52 | 29.35831 | 96.62940 | 34330 ft | 444 kts | 265° |
| 2026-05-04 02:53 | 29.35065 | 96.55968 | 34328 ft | 443 kts | 265° |
| 2026-05-04 02:53 | 29.34295 | 96.48963 | 34332 ft | 444 kts | 265° |
| 2026-05-04 02:54 | 29.33540 | 96.41953 | 34328 ft | 444 kts | 265° |
| 2026-05-04 02:54 | 29.32820 | 96.34940 | 34319 ft | 445 kts | 265° |
| 2026-05-04 02:55 | 29.31737 | 96.24494 | 34315 ft | 445 kts | 265° |
| 2026-05-04 02:56 | 29.31013 | 96.17469 | 34312 ft | 445 kts | 265° |
| 2026-05-04 02:56 | 29.30295 | 96.10427 | 34304 ft | 444 kts | 265° |
| 2026-05-04 02:57 | 29.29592 | 96.03408 | 34288 ft | 446 kts | 265° |
| 2026-05-04 02:57 | 29.28907 | 95.96389 | 34296 ft | 447 kts | 265° |
| 2026-05-04 02:58 | 29.28237 | 95.89434 | 34274 ft | 447 kts | 265° |
| 2026-05-04 02:58 | 29.27543 | 95.82313 | 34276 ft | 447 kts | 265° |
| 2026-05-04 02:59 | 29.26857 | 95.75239 | 34260 ft | 447 kts | 265° |
| 2026-05-04 02:59 | 29.26185 | 95.68336 | 34253 ft | 447 kts | 265° |
| 2026-05-04 03:00 | 29.25507 | 95.61243 | 34237 ft | 448 kts | 265° |
| 2026-05-04 03:00 | 29.24836 | 95.54232 | 34226 ft | 448 kts | 265° |
| 2026-05-04 03:01 | 29.24154 | 95.47167 | 34212 ft | 448 kts | 265° |
| 2026-05-04 03:01 | 29.23478 | 95.40143 | 34216 ft | 448 kts | 265° |
| 2026-05-04 03:02 | 29.22813 | 95.33123 | 34213 ft | 448 kts | 265° |
| 2026-05-04 03:02 | 29.22161 | 95.26106 | 34222 ft | 448 kts | 265° |
| 2026-05-04 03:03 | 29.21526 | 95.19012 | 34222 ft | 448 kts | 265° |
| 2026-05-04 03:03 | 29.20891 | 95.11927 | 34231 ft | 448 kts | 265° |
| 2026-05-04 03:04 | 29.20240 | 95.04844 | 34228 ft | 448 kts | 266° |
| 2026-05-04 03:04 | 29.19597 | 94.97777 | 34243 ft | 448 kts | 265° |
| 2026-05-04 03:05 | 29.18956 | 94.90675 | 34254 ft | 449 kts | 266° |
| 2026-05-04 03:05 | 29.18314 | 94.83573 | 34258 ft | 448 kts | 265° |
| 2026-05-04 03:06 | 29.17705 | 94.76483 | 34261 ft | 448 kts | 265° |
| 2026-05-04 03:06 | 29.17098 | 94.69389 | 34272 ft | 449 kts | 265° |
| 2026-05-04 03:07 | 29.16493 | 94.62284 | 34253 ft | 449 kts | 265° |
| 2026-05-04 03:07 | 29.15884 | 94.55249 | 34270 ft | 449 kts | 265° |
| 2026-05-04 03:08 | 29.15299 | 94.48137 | 34276 ft | 450 kts | 265° |
| 2026-05-04 03:08 | 29.14717 | 94.41005 | 34280 ft | 451 kts | 266° |
| 2026-05-04 03:09 | 29.14138 | 94.33943 | 34285 ft | 449 kts | 265° |
| 2026-05-04 03:09 | 29.13552 | 94.26846 | 34290 ft | 450 kts | 265° |
| 2026-05-04 03:10 | 29.12969 | 94.19698 | 34285 ft | 451 kts | 265° |
| 2026-05-04 03:10 | 29.12403 | 94.12598 | 34290 ft | 451 kts | 266° |
| 2026-05-04 03:11 | 29.11838 | 94.05478 | 34294 ft | 451 kts | 266° |
| 2026-05-04 03:11 | 29.11269 | 93.98336 | 34295 ft | 452 kts | 265° |
| 2026-05-04 03:12 | 29.10700 | 93.91227 | 34290 ft | 451 kts | 266° |
| 2026-05-04 03:12 | 29.10131 | 93.84087 | 34282 ft | 451 kts | 265° |
| 2026-05-04 03:13 | 29.09567 | 93.76918 | 34276 ft | 453 kts | 266° |
| 2026-05-04 03:13 | 29.09011 | 93.69751 | 34270 ft | 453 kts | 265° |
| 2026-05-04 03:14 | 29.08460 | 93.62620 | 34283 ft | 452 kts | 266° |
| 2026-05-04 03:14 | 29.07907 | 93.55442 | 34283 ft | 452 kts | 265° |
| 2026-05-04 03:15 | 29.07360 | 93.48298 | 34276 ft | 452 kts | 266° |
| 2026-05-04 03:15 | 29.06803 | 93.41110 | 34272 ft | 451 kts | 265° |
| 2026-05-04 03:16 | 29.06255 | 93.33963 | 34261 ft | 452 kts | 265° |
| 2026-05-04 03:16 | 29.05700 | 93.26796 | 34262 ft | 453 kts | 266° |
| 2026-05-04 03:17 | 29.05147 | 93.19714 | 34259 ft | 453 kts | 266° |
| 2026-05-04 03:17 | 29.04603 | 93.12535 | 34241 ft | 452 kts | 266° |
| 2026-05-04 03:18 | 29.04066 | 93.05386 | 34246 ft | 452 kts | 266° |
| 2026-05-04 03:18 | 29.03526 | 92.98234 | 34238 ft | 452 kts | 266° |
| 2026-05-04 03:19 | 29.02990 | 92.91098 | 34239 ft | 452 kts | 266° |
| 2026-05-04 03:19 | 29.02464 | 92.83966 | 34242 ft | 452 kts | 266° |
| 2026-05-04 03:20 | 29.01933 | 92.76878 | 34237 ft | 451 kts | 266° |
| 2026-05-04 03:20 | 29.01396 | 92.69742 | 34235 ft | 452 kts | 266° |
| 2026-05-04 03:21 | 29.00880 | 92.62582 | 34237 ft | 452 kts | 266° |
| 2026-05-04 03:21 | 29.00376 | 92.55436 | 34235 ft | 453 kts | 266° |
| 2026-05-04 03:22 | 28.99865 | 92.48246 | 34231 ft | 453 kts | 266° |
| 2026-05-04 03:22 | 28.99367 | 92.41090 | 34234 ft | 453 kts | 266° |
| 2026-05-04 03:23 | 28.98858 | 92.33913 | 34232 ft | 453 kts | 266° |
| 2026-05-04 03:23 | 28.98363 | 92.26775 | 34225 ft | 453 kts | 266° |
| 2026-05-04 03:24 | 28.97872 | 92.19593 | 34222 ft | 454 kts | 266° |
| 2026-05-04 03:24 | 28.97382 | 92.12405 | 34207 ft | 454 kts | 266° |
| 2026-05-04 03:25 | 28.96891 | 92.05196 | 34204 ft | 454 kts | 266° |
| 2026-05-04 03:25 | 28.96402 | 91.98011 | 34184 ft | 454 kts | 266° |
| 2026-05-04 03:26 | 28.95914 | 91.90823 | 34177 ft | 454 kts | 266° |
| 2026-05-04 03:26 | 28.95436 | 91.83699 | 34184 ft | 455 kts | 266° |
| 2026-05-04 03:27 | 28.95036 | 91.77700 | 34175 ft | 454 kts | 266° |
| 2026-05-04 03:27 | 28.94556 | 91.70494 | 34171 ft | 455 kts | 266° |
| 2026-05-04 03:28 | 28.94082 | 91.63310 | 34159 ft | 453 kts | 266° |
| 2026-05-04 03:28 | 28.93633 | 91.56152 | 34171 ft | 452 kts | 266° |
| 2026-05-04 03:29 | 28.93175 | 91.49005 | 34172 ft | 453 kts | 266° |
| 2026-05-04 03:29 | 28.92719 | 91.41812 | 34171 ft | 454 kts | 266° |
| 2026-05-04 03:30 | 28.92271 | 91.34652 | 34171 ft | 455 kts | 266° |
| 2026-05-04 03:30 | 28.91820 | 91.27424 | 34178 ft | 455 kts | 266° |
| 2026-05-04 03:31 | 28.91372 | 91.20226 | 34179 ft | 455 kts | 266° |
| 2026-05-04 03:31 | 28.90927 | 91.13043 | 34170 ft | 455 kts | 266° |
| 2026-05-04 03:32 | 28.90466 | 91.05844 | 34170 ft | 457 kts | 266° |
| 2026-05-04 03:32 | 28.89998 | 90.98606 | 34165 ft | 458 kts | 266° |
| 2026-05-04 03:33 | 28.89533 | 90.91359 | 34190 ft | 457 kts | 266° |
| 2026-05-04 03:33 | 28.89070 | 90.84102 | 34193 ft | 458 kts | 266° |
| 2026-05-04 03:34 | 28.88608 | 90.76855 | 34186 ft | 458 kts | 266° |
| 2026-05-04 03:34 | 28.88148 | 90.69615 | 34177 ft | 458 kts | 266° |
| 2026-05-04 03:35 | 28.87690 | 90.62347 | 34182 ft | 458 kts | 266° |
| 2026-05-04 03:35 | 28.87237 | 90.55115 | 34180 ft | 458 kts | 266° |
| 2026-05-04 03:36 | 28.86778 | 90.47838 | 34178 ft | 459 kts | 266° |
| 2026-05-04 03:36 | 28.86329 | 90.40624 | 34191 ft | 458 kts | 266° |
| 2026-05-04 03:37 | 28.85900 | 90.33380 | 34188 ft | 458 kts | 266° |
| 2026-05-04 03:37 | 28.85514 | 90.26154 | 34203 ft | 457 kts | 266° |
| 2026-05-04 03:38 | 28.85129 | 90.18907 | 34200 ft | 457 kts | 266° |
| 2026-05-04 03:38 | 28.84745 | 90.11675 | 34206 ft | 457 kts | 266° |
| 2026-05-04 03:39 | 28.84361 | 90.04460 | 34205 ft | 456 kts | 266° |
| 2026-05-04 03:39 | 28.83991 | 89.97278 | 34207 ft | 456 kts | 266° |
| 2026-05-04 03:40 | 28.83634 | 89.90011 | 34200 ft | 457 kts | 266° |
| 2026-05-04 03:40 | 28.83288 | 89.82821 | 34197 ft | 456 kts | 266° |
| 2026-05-04 03:41 | 28.82942 | 89.75577 | 34203 ft | 457 kts | 266° |
| 2026-05-04 03:41 | 28.82588 | 89.68367 | 34195 ft | 456 kts | 266° |
| 2026-05-04 03:42 | 28.82239 | 89.61124 | 34189 ft | 456 kts | 266° |
| 2026-05-04 03:42 | 28.81898 | 89.53915 | 34189 ft | 456 kts | 266° |
| 2026-05-04 03:43 | 28.81555 | 89.46693 | 34195 ft | 456 kts | 266° |
| 2026-05-04 03:43 | 28.81216 | 89.39514 | 34195 ft | 456 kts | 266° |
| 2026-05-04 03:44 | 28.80876 | 89.32297 | 34190 ft | 456 kts | 266° |
| 2026-05-04 03:44 | 28.80539 | 89.25078 | 34187 ft | 456 kts | 266° |
| 2026-05-04 03:45 | 28.80212 | 89.17834 | 34196 ft | 457 kts | 266° |
| 2026-05-04 03:45 | 28.79900 | 89.10606 | 34191 ft | 456 kts | 266° |
| 2026-05-04 03:46 | 28.79588 | 89.03376 | 34183 ft | 457 kts | 266° |
| 2026-05-04 03:46 | 28.79278 | 88.96134 | 34184 ft | 457 kts | 266° |
| 2026-05-04 03:47 | 28.78971 | 88.88913 | 34182 ft | 457 kts | 266° |
| 2026-05-04 03:47 | 28.78674 | 88.81720 | 34187 ft | 456 kts | 266° |
| 2026-05-04 03:48 | 28.78387 | 88.74496 | 34186 ft | 455 kts | 266° |
| 2026-05-04 03:48 | 28.78104 | 88.67293 | 34189 ft | 455 kts | 266° |
| 2026-05-04 03:49 | 28.77822 | 88.60079 | 34197 ft | 455 kts | 266° |
| 2026-05-04 03:49 | 28.77540 | 88.52897 | 34201 ft | 455 kts | 266° |
| 2026-05-04 03:50 | 28.77258 | 88.45660 | 34225 ft | 455 kts | 266° |
| 2026-05-04 03:50 | 28.77002 | 88.38452 | 34221 ft | 454 kts | 266° |
| 2026-05-04 03:51 | 28.76751 | 88.31298 | 34226 ft | 454 kts | 266° |
| 2026-05-04 03:51 | 28.76494 | 88.24102 | 34224 ft | 454 kts | 266° |
| 2026-05-04 03:52 | 28.76242 | 88.16930 | 34216 ft | 454 kts | 266° |
| 2026-05-04 03:52 | 28.75991 | 88.09747 | 34233 ft | 454 kts | 266° |
| 2026-05-04 03:53 | 28.75753 | 88.02581 | 34228 ft | 454 kts | 266° |
| 2026-05-04 03:53 | 28.75526 | 87.95378 | 34230 ft | 454 kts | 266° |
| 2026-05-04 03:54 | 28.75296 | 87.88233 | 34234 ft | 455 kts | 266° |
| 2026-05-04 03:54 | 28.75073 | 87.81035 | 34234 ft | 454 kts | 266° |
| 2026-05-04 03:55 | 28.74850 | 87.73850 | 34233 ft | 454 kts | 266° |
| 2026-05-04 03:55 | 28.74629 | 87.66652 | 34253 ft | 453 kts | 266° |
| 2026-05-04 03:56 | 28.74423 | 87.59475 | 34249 ft | 451 kts | 266° |
| 2026-05-04 03:56 | 28.74218 | 87.52379 | 34268 ft | 451 kts | 266° |
| 2026-05-04 03:57 | 28.74013 | 87.45245 | 34274 ft | 451 kts | 266° |
| 2026-05-04 03:57 | 28.73812 | 87.38151 | 34274 ft | 451 kts | 266° |
| 2026-05-04 03:58 | 28.73507 | 87.27435 | 34276 ft | 450 kts | 266° |
| 2026-05-04 03:58 | 28.73305 | 87.20328 | 34267 ft | 449 kts | 266° |
| 2026-05-04 03:59 | 28.73110 | 87.13241 | 34279 ft | 445 kts | 267° |
| 2026-05-04 03:59 | 28.72849 | 87.06301 | 34265 ft | 425 kts | 266° |
| 2026-05-04 04:00 | 28.72749 | 87.02983 | 34270 ft | 409 kts | 266° |
| 2026-05-04 04:00 | 28.72665 | 86.99821 | 34263 ft | 393 kts | 266° |
| 2026-05-04 04:00 | 28.72591 | 86.96772 | 34269 ft | 377 kts | 266° |
| 2026-05-04 04:00 | 28.72521 | 86.93841 | 34275 ft | 362 kts | 266° |
| 2026-05-04 04:01 | 28.72460 | 86.91031 | 34266 ft | 347 kts | 266° |
| 2026-05-04 04:01 | 28.72405 | 86.88345 | 34260 ft | 332 kts | 266° |
| 2026-05-04 04:01 | 28.72357 | 86.85764 | 34250 ft | 317 kts | 266° |
| 2026-05-04 04:01 | 28.72316 | 86.83319 | 34267 ft | 302 kts | 266° |
| 2026-05-04 04:02 | 28.72281 | 86.81015 | 34252 ft | 286 kts | 266° |
| 2026-05-04 04:02 | 28.72254 | 86.78792 | 34260 ft | 268 kts | 266° |
| 2026-05-04 04:02 | 28.72239 | 86.77233 | 34255 ft | 254 kts | 266° |